sensor_id;sensor_type;location;lat;lon;timestamp;temperature;humidity
34434;DHT22;34290;48.562;13.384;2022-12-15T00:01:06;-1.40;99.90
34434;DHT22;34290;48.562;13.384;2022-12-15T00:03:51;-1.50;99.90
34434;DHT22;34290;48.562;13.384;2022-12-15T00:06:37;-1.50;99.90
34434;DHT22;34290;48.562;13.384;2022-12-15T00:09:21;-1.50;99.90
34434;DHT22;34290;48.562;13.384;2022-12-15T00:12:05;-1.50;99.90
34434;DHT22;34290;48.562;13.384;2022-12-15T00:14:50;-1.50;99.90
34434;DHT22;34290;48.562;13.384;2022-12-15T00:17:34;-1.60;99.90
34434;DHT22;34290;48.562;13.384;2022-12-15T00:20:18;-1.60;99.90
34434;DHT22;34290;48.562;13.384;2022-12-15T00:23:07;-1.60;99.90
34434;DHT22;34290;48.562;13.384;2022-12-15T00:25:52;-1.70;99.90
34434;DHT22;34290;48.562;13.384;2022-12-15T00:28:36;-1.70;99.90
34434;DHT22;34290;48.562;13.384;2022-12-15T00:36:50;-1.70;99.90
34434;DHT22;34290;48.562;13.384;2022-12-15T00:39:35;-1.70;99.90
34434;DHT22;34290;48.562;13.384;2022-12-15T00:42:02;-1.70;99.90
34434;DHT22;34290;48.562;13.384;2022-12-15T00:49:24;-1.70;99.90
34434;DHT22;34290;48.562;13.384;2022-12-15T00:52:08;-1.70;99.90
34434;DHT22;34290;48.562;13.384;2022-12-15T00:54:55;-1.70;99.90
34434;DHT22;34290;48.562;13.384;2022-12-15T00:57:40;-1.80;99.90
34434;DHT22;34290;48.562;13.384;2022-12-15T01:00:25;-1.80;99.90
34434;DHT22;34290;48.562;13.384;2022-12-15T01:03:11;-1.90;99.90
34434;DHT22;34290;48.562;13.384;2022-12-15T01:05:56;-1.80;99.90
34434;DHT22;34290;48.562;13.384;2022-12-15T01:11:26;-1.90;99.90
34434;DHT22;34290;48.562;13.384;2022-12-15T01:14:11;-1.90;99.90
34434;DHT22;34290;48.562;13.384;2022-12-15T01:16:57;-1.90;99.90
34434;DHT22;34290;48.562;13.384;2022-12-15T01:19:42;-2.00;99.90
34434;DHT22;34290;48.562;13.384;2022-12-15T01:22:26;-2.00;99.90
34434;DHT22;34290;48.562;13.384;2022-12-15T01:27:21;-2.00;99.90
34434;DHT22;34290;48.562;13.384;2022-12-15T01:29:48;-2.00;99.90
34434;DHT22;34290;48.562;13.384;2022-12-15T01:34:42;-2.10;99.90
34434;DHT22;34290;48.562;13.384;2022-12-15T01:37:09;-2.10;99.90
34434;DHT22;34290;48.562;13.384;2022-12-15T01:42:22;-2.10;99.90
34434;DHT22;34290;48.562;13.384;2022-12-15T01:44:51;-2.20;99.90
34434;DHT22;34290;48.562;13.384;2022-12-15T01:47:21;-2.10;99.90
34434;DHT22;34290;48.562;13.384;2022-12-15T01:49:50;-2.20;99.90
34434;DHT22;34290;48.562;13.384;2022-12-15T01:52:19;-2.20;99.90
34434;DHT22;34290;48.562;13.384;2022-12-15T01:54:48;-2.20;99.90
34434;DHT22;34290;48.562;13.384;2022-12-15T01:57:19;-2.20;99.90
34434;DHT22;34290;48.562;13.384;2022-12-15T01:59:52;-2.20;99.90
34434;DHT22;34290;48.562;13.384;2022-12-15T02:02:22;-2.20;99.90
34434;DHT22;34290;48.562;13.384;2022-12-15T02:04:51;-2.20;99.90
34434;DHT22;34290;48.562;13.384;2022-12-15T02:07:21;-2.20;99.90
34434;DHT22;34290;48.562;13.384;2022-12-15T02:09:49;-2.20;99.90
34434;DHT22;34290;48.562;13.384;2022-12-15T02:12:24;-2.20;99.90
34434;DHT22;34290;48.562;13.384;2022-12-15T02:15:06;-2.30;99.90
34434;DHT22;34290;48.562;13.384;2022-12-15T02:17:39;-2.30;99.90
34434;DHT22;34290;48.562;13.384;2022-12-15T02:26:24;-2.30;99.90
34434;DHT22;34290;48.562;13.384;2022-12-15T02:29:06;-2.30;99.90
34434;DHT22;34290;48.562;13.384;2022-12-15T02:31:39;-2.20;99.90
34434;DHT22;34290;48.562;13.384;2022-12-15T02:34:20;-2.20;99.90
34434;DHT22;34290;48.562;13.384;2022-12-15T02:36:56;-2.20;99.90
34434;DHT22;34290;48.562;13.384;2022-12-15T02:39:24;-2.30;99.90
34434;DHT22;34290;48.562;13.384;2022-12-15T02:41:51;-2.30;99.90
34434;DHT22;34290;48.562;13.384;2022-12-15T02:44:21;-2.20;99.90
34434;DHT22;34290;48.562;13.384;2022-12-15T02:47:14;-2.20;99.90
34434;DHT22;34290;48.562;13.384;2022-12-15T02:49:52;-2.30;99.90
34434;DHT22;34290;48.562;13.384;2022-12-15T02:52:37;-2.20;99.90
34434;DHT22;34290;48.562;13.384;2022-12-15T02:55:12;-2.20;99.90
34434;DHT22;34290;48.562;13.384;2022-12-15T02:57:47;-2.20;99.90
34434;DHT22;34290;48.562;13.384;2022-12-15T03:00:17;-2.20;99.90
34434;DHT22;34290;48.562;13.384;2022-12-15T03:02:48;-2.20;99.90
34434;DHT22;34290;48.562;13.384;2022-12-15T03:05:20;-2.20;99.90
34434;DHT22;34290;48.562;13.384;2022-12-15T03:07:49;-2.20;99.90
34434;DHT22;34290;48.562;13.384;2022-12-15T03:10:18;-2.20;99.90
34434;DHT22;34290;48.562;13.384;2022-12-15T03:12:45;-2.20;99.90
34434;DHT22;34290;48.562;13.384;2022-12-15T03:15:12;-2.20;99.90
34434;DHT22;34290;48.562;13.384;2022-12-15T03:17:39;-2.20;99.90
34434;DHT22;34290;48.562;13.384;2022-12-15T03:20:09;-2.20;99.90
34434;DHT22;34290;48.562;13.384;2022-12-15T03:22:36;-2.30;99.90
34434;DHT22;34290;48.562;13.384;2022-12-15T03:25:04;-2.30;99.90
34434;DHT22;34290;48.562;13.384;2022-12-15T03:29:58;-2.30;99.90
34434;DHT22;34290;48.562;13.384;2022-12-15T03:34:52;-2.30;99.90
34434;DHT22;34290;48.562;13.384;2022-12-15T03:37:21;-2.30;99.90
34434;DHT22;34290;48.562;13.384;2022-12-15T03:39:48;-2.40;99.90
34434;DHT22;34290;48.562;13.384;2022-12-15T03:45:03;-2.30;99.90
34434;DHT22;34290;48.562;13.384;2022-12-15T03:47:30;-2.30;99.90
34434;DHT22;34290;48.562;13.384;2022-12-15T03:49:57;-2.30;99.90
34434;DHT22;34290;48.562;13.384;2022-12-15T03:52:26;-2.40;99.90
34434;DHT22;34290;48.562;13.384;2022-12-15T03:57:20;-2.30;99.90
34434;DHT22;34290;48.562;13.384;2022-12-15T03:59:47;-2.30;99.90
34434;DHT22;34290;48.562;13.384;2022-12-15T04:02:14;-2.40;99.90
34434;DHT22;34290;48.562;13.384;2022-12-15T04:07:08;-2.30;99.90
34434;DHT22;34290;48.562;13.384;2022-12-15T04:09:37;-2.30;99.90
34434;DHT22;34290;48.562;13.384;2022-12-15T04:12:04;-2.40;99.90
34434;DHT22;34290;48.562;13.384;2022-12-15T04:14:31;-2.30;99.90
34434;DHT22;34290;48.562;13.384;2022-12-15T04:16:58;-2.30;99.90
34434;DHT22;34290;48.562;13.384;2022-12-15T04:19:28;-2.30;99.90
34434;DHT22;34290;48.562;13.384;2022-12-15T04:22:12;-2.30;99.90
34434;DHT22;34290;48.562;13.384;2022-12-15T04:24:41;-2.30;99.90
34434;DHT22;34290;48.562;13.384;2022-12-15T04:27:25;-2.30;99.90
34434;DHT22;34290;48.562;13.384;2022-12-15T04:30:11;-2.30;99.90
34434;DHT22;34290;48.562;13.384;2022-12-15T04:32:55;-2.30;99.90
34434;DHT22;34290;48.562;13.384;2022-12-15T04:35:40;-2.40;99.90
34434;DHT22;34290;48.562;13.384;2022-12-15T04:38:25;-2.30;99.90
34434;DHT22;34290;48.562;13.384;2022-12-15T04:41:12;-2.40;99.90
34434;DHT22;34290;48.562;13.384;2022-12-15T04:44:00;-2.40;99.90
34434;DHT22;34290;48.562;13.384;2022-12-15T04:46:44;-2.40;99.90
34434;DHT22;34290;48.562;13.384;2022-12-15T04:49:29;-2.30;99.90
34434;DHT22;34290;48.562;13.384;2022-12-15T04:52:13;-2.30;99.90
34434;DHT22;34290;48.562;13.384;2022-12-15T04:54:57;-2.30;99.90
34434;DHT22;34290;48.562;13.384;2022-12-15T04:57:42;-2.20;99.90
34434;DHT22;34290;48.562;13.384;2022-12-15T05:00:27;-2.30;99.90
34434;DHT22;34290;48.562;13.384;2022-12-15T05:03:11;-2.30;99.90
34434;DHT22;34290;48.562;13.384;2022-12-15T05:05:57;-2.40;99.90
34434;DHT22;34290;48.562;13.384;2022-12-15T05:08:41;-2.40;99.90
34434;DHT22;34290;48.562;13.384;2022-12-15T05:11:26;-2.30;99.90
34434;DHT22;34290;48.562;13.384;2022-12-15T05:14:11;-2.30;99.90
34434;DHT22;34290;48.562;13.384;2022-12-15T05:16:59;-2.20;99.90
34434;DHT22;34290;48.562;13.384;2022-12-15T05:25:13;-2.30;99.90
34434;DHT22;34290;48.562;13.384;2022-12-15T05:27:57;-2.30;99.90
34434;DHT22;34290;48.562;13.384;2022-12-15T05:30:43;-2.40;99.90
34434;DHT22;34290;48.562;13.384;2022-12-15T05:33:27;-2.30;99.90
34434;DHT22;34290;48.562;13.384;2022-12-15T05:35:55;-2.30;99.90
34434;DHT22;34290;48.562;13.384;2022-12-15T05:38:25;-2.30;99.90
34434;DHT22;34290;48.562;13.384;2022-12-15T05:45:48;-2.40;99.90
34434;DHT22;34290;48.562;13.384;2022-12-15T05:53:09;-2.30;99.90
34434;DHT22;34290;48.562;13.384;2022-12-15T05:55:36;-2.20;99.90
34434;DHT22;34290;48.562;13.384;2022-12-15T05:58:03;-2.20;99.90
34434;DHT22;34290;48.562;13.384;2022-12-15T06:00:30;-2.20;99.90
34434;DHT22;34290;48.562;13.384;2022-12-15T06:02:58;-2.30;99.90
34434;DHT22;34290;48.562;13.384;2022-12-15T06:05:28;-2.30;99.90
34434;DHT22;34290;48.562;13.384;2022-12-15T06:07:55;-2.30;99.90
34434;DHT22;34290;48.562;13.384;2022-12-15T06:12:49;-2.30;99.90
34434;DHT22;34290;48.562;13.384;2022-12-15T06:15:16;-2.30;99.90
34434;DHT22;34290;48.562;13.384;2022-12-15T06:17:43;-2.30;99.90
34434;DHT22;34290;48.562;13.384;2022-12-15T06:20:12;-2.30;99.90
34434;DHT22;34290;48.562;13.384;2022-12-15T06:22:38;-2.30;99.90
34434;DHT22;34290;48.562;13.384;2022-12-15T06:25:08;-2.30;99.90
34434;DHT22;34290;48.562;13.384;2022-12-15T06:27:39;-2.30;99.90
34434;DHT22;34290;48.562;13.384;2022-12-15T06:30:06;-2.30;99.90
34434;DHT22;34290;48.562;13.384;2022-12-15T06:32:33;-2.30;99.90
34434;DHT22;34290;48.562;13.384;2022-12-15T06:37:30;-2.20;99.90
34434;DHT22;34290;48.562;13.384;2022-12-15T06:39:57;-2.20;99.90
34434;DHT22;34290;48.562;13.384;2022-12-15T06:42:24;-2.20;99.90
34434;DHT22;34290;48.562;13.384;2022-12-15T06:44:50;-2.20;99.90
34434;DHT22;34290;48.562;13.384;2022-12-15T06:49:48;-2.30;99.90
34434;DHT22;34290;48.562;13.384;2022-12-15T06:52:15;-2.30;99.90
34434;DHT22;34290;48.562;13.384;2022-12-15T06:54:43;-2.40;99.90
34434;DHT22;34290;48.562;13.384;2022-12-15T06:57:10;-2.40;99.90
34434;DHT22;34290;48.562;13.384;2022-12-15T06:59:37;-2.40;99.90
34434;DHT22;34290;48.562;13.384;2022-12-15T07:02:04;-2.30;99.90
34434;DHT22;34290;48.562;13.384;2022-12-15T07:04:34;-2.30;99.90
34434;DHT22;34290;48.562;13.384;2022-12-15T07:07:01;-2.30;99.90
34434;DHT22;34290;48.562;13.384;2022-12-15T07:09:28;-2.20;99.90
34434;DHT22;34290;48.562;13.384;2022-12-15T07:11:59;-2.20;99.90
34434;DHT22;34290;48.562;13.384;2022-12-15T07:14:26;-2.20;99.90
34434;DHT22;34290;48.562;13.384;2022-12-15T07:19:20;-2.10;99.90
34434;DHT22;34290;48.562;13.384;2022-12-15T07:24:17;-2.10;99.90
34434;DHT22;34290;48.562;13.384;2022-12-15T07:26:44;-2.10;99.90
34434;DHT22;34290;48.562;13.384;2022-12-15T07:29:13;-2.00;99.90
34434;DHT22;34290;48.562;13.384;2022-12-15T07:31:40;-2.00;99.90
34434;DHT22;34290;48.562;13.384;2022-12-15T07:34:07;-2.10;99.90
34434;DHT22;34290;48.562;13.384;2022-12-15T07:36:34;-2.00;99.90
34434;DHT22;34290;48.562;13.384;2022-12-15T07:39:01;-2.00;99.90
34434;DHT22;34290;48.562;13.384;2022-12-15T07:41:28;-2.00;99.90
34434;DHT22;34290;48.562;13.384;2022-12-15T07:43:56;-2.00;99.90
34434;DHT22;34290;48.562;13.384;2022-12-15T07:46:24;-2.00;99.90
34434;DHT22;34290;48.562;13.384;2022-12-15T07:48:53;-1.90;99.90
34434;DHT22;34290;48.562;13.384;2022-12-15T07:51:20;-1.80;99.90
34434;DHT22;34290;48.562;13.384;2022-12-15T07:53:48;-1.80;99.90
34434;DHT22;34290;48.562;13.384;2022-12-15T07:56:15;-1.80;99.90
34434;DHT22;34290;48.562;13.384;2022-12-15T07:58:43;-1.70;99.90
34434;DHT22;34290;48.562;13.384;2022-12-15T08:01:11;-1.70;99.90
34434;DHT22;34290;48.562;13.384;2022-12-15T08:03:39;-1.70;99.90
34434;DHT22;34290;48.562;13.384;2022-12-15T08:06:08;-1.60;99.90
34434;DHT22;34290;48.562;13.384;2022-12-15T08:11:03;-1.60;99.90
34434;DHT22;34290;48.562;13.384;2022-12-15T08:13:32;-1.50;99.90
34434;DHT22;34290;48.562;13.384;2022-12-15T08:15:59;-1.50;99.90
34434;DHT22;34290;48.562;13.384;2022-12-15T08:20:55;-1.40;99.90
34434;DHT22;34290;48.562;13.384;2022-12-15T08:28:17;-1.20;99.90
34434;DHT22;34290;48.562;13.384;2022-12-15T08:33:11;-1.20;99.90
34434;DHT22;34290;48.562;13.384;2022-12-15T08:35:39;-1.10;99.90
34434;DHT22;34290;48.562;13.384;2022-12-15T08:38:07;-1.10;99.90
34434;DHT22;34290;48.562;13.384;2022-12-15T08:45:28;-0.80;99.90
34434;DHT22;34290;48.562;13.384;2022-12-15T08:50:22;-0.80;99.90
34434;DHT22;34290;48.562;13.384;2022-12-15T08:52:49;-0.80;99.90
34434;DHT22;34290;48.562;13.384;2022-12-15T08:55:18;-0.80;99.90
34434;DHT22;34290;48.562;13.384;2022-12-15T08:57:48;-0.70;99.90
34434;DHT22;34290;48.562;13.384;2022-12-15T09:00:15;-0.80;99.90
34434;DHT22;34290;48.562;13.384;2022-12-15T09:05:10;-0.60;99.90
34434;DHT22;34290;48.562;13.384;2022-12-15T09:07:36;-0.40;99.90
34434;DHT22;34290;48.562;13.384;2022-12-15T09:10:07;-0.30;99.90
34434;DHT22;34290;48.562;13.384;2022-12-15T09:12:35;-0.10;99.90
34434;DHT22;34290;48.562;13.384;2022-12-15T09:15:03;0.00;99.90
34434;DHT22;34290;48.562;13.384;2022-12-15T09:17:30;-0.10;99.90
34434;DHT22;34290;48.562;13.384;2022-12-15T09:19:57;0.00;99.90
34434;DHT22;34290;48.562;13.384;2022-12-15T09:29:47;0.90;99.90
34434;DHT22;34290;48.562;13.384;2022-12-15T09:32:14;1.50;99.90
34434;DHT22;34290;48.562;13.384;2022-12-15T09:39:35;1.70;99.90
34434;DHT22;34290;48.562;13.384;2022-12-15T09:42:03;1.70;99.90
34434;DHT22;34290;48.562;13.384;2022-12-15T09:44:31;1.60;99.90
34434;DHT22;34290;48.562;13.384;2022-12-15T09:47:09;1.50;99.90
34434;DHT22;34290;48.562;13.384;2022-12-15T09:49:59;1.40;99.90
34434;DHT22;34290;48.562;13.384;2022-12-15T09:52:30;1.20;99.90
34434;DHT22;34290;48.562;13.384;2022-12-15T09:55:00;1.10;99.90
34434;DHT22;34290;48.562;13.384;2022-12-15T09:57:36;0.90;99.90
34434;DHT22;34290;48.562;13.384;2022-12-15T10:00:14;0.40;99.90
34434;DHT22;34290;48.562;13.384;2022-12-15T10:03:08;0.30;99.90
34434;DHT22;34290;48.562;13.384;2022-12-15T10:05:44;0.40;99.90
34434;DHT22;34290;48.562;13.384;2022-12-15T10:08:13;0.40;99.90
34434;DHT22;34290;48.562;13.384;2022-12-15T10:10:44;0.40;99.90
34434;DHT22;34290;48.562;13.384;2022-12-15T10:13:18;0.50;99.90
34434;DHT22;34290;48.562;13.384;2022-12-15T10:15:50;0.40;99.90
34434;DHT22;34290;48.562;13.384;2022-12-15T10:18:25;0.40;99.90
34434;DHT22;34290;48.562;13.384;2022-12-15T10:20:58;0.50;99.90
34434;DHT22;34290;48.562;13.384;2022-12-15T10:25:58;0.60;99.90
34434;DHT22;34290;48.562;13.384;2022-12-15T10:28:42;0.50;99.90
34434;DHT22;34290;48.562;13.384;2022-12-15T10:31:21;0.30;99.90
34434;DHT22;34290;48.562;13.384;2022-12-15T10:33:56;0.30;99.90
34434;DHT22;34290;48.562;13.384;2022-12-15T10:36:26;0.50;99.90
34434;DHT22;34290;48.562;13.384;2022-12-15T10:38:53;0.40;99.90
34434;DHT22;34290;48.562;13.384;2022-12-15T10:41:21;0.60;99.90
34434;DHT22;34290;48.562;13.384;2022-12-15T10:43:52;0.70;99.90
34434;DHT22;34290;48.562;13.384;2022-12-15T10:46:20;0.80;99.90
34434;DHT22;34290;48.562;13.384;2022-12-15T10:48:49;0.70;99.90
34434;DHT22;34290;48.562;13.384;2022-12-15T10:51:19;0.60;99.90
34434;DHT22;34290;48.562;13.384;2022-12-15T10:53:48;0.40;99.90
34434;DHT22;34290;48.562;13.384;2022-12-15T10:56:23;0.40;99.90
34434;DHT22;34290;48.562;13.384;2022-12-15T10:58:51;0.40;99.90
34434;DHT22;34290;48.562;13.384;2022-12-15T11:01:23;0.30;99.90
34434;DHT22;34290;48.562;13.384;2022-12-15T11:03:50;0.10;99.90
34434;DHT22;34290;48.562;13.384;2022-12-15T11:06:21;0.10;99.90
34434;DHT22;34290;48.562;13.384;2022-12-15T11:08:50;0.20;99.90
34434;DHT22;34290;48.562;13.384;2022-12-15T11:11:29;0.40;99.90
34434;DHT22;34290;48.562;13.384;2022-12-15T11:14:17;0.50;99.90
34434;DHT22;34290;48.562;13.384;2022-12-15T11:16:51;0.60;99.90
34434;DHT22;34290;48.562;13.384;2022-12-15T11:19:29;0.60;99.90
34434;DHT22;34290;48.562;13.384;2022-12-15T11:22:07;0.60;99.90
34434;DHT22;34290;48.562;13.384;2022-12-15T11:24:39;0.40;99.90
34434;DHT22;34290;48.562;13.384;2022-12-15T11:27:14;0.40;99.90
34434;DHT22;34290;48.562;13.384;2022-12-15T11:29:58;0.40;99.90
34434;DHT22;34290;48.562;13.384;2022-12-15T11:32:30;0.60;99.90
34434;DHT22;34290;48.562;13.384;2022-12-15T11:34:58;0.80;99.90
34434;DHT22;34290;48.562;13.384;2022-12-15T11:37:38;1.10;99.90
34434;DHT22;34290;48.562;13.384;2022-12-15T11:40:32;1.10;99.90
34434;DHT22;34290;48.562;13.384;2022-12-15T11:43:33;1.10;99.90
34434;DHT22;34290;48.562;13.384;2022-12-15T11:46:19;1.10;99.90
34434;DHT22;34290;48.562;13.384;2022-12-15T11:48:57;0.90;99.90
34434;DHT22;34290;48.562;13.384;2022-12-15T11:51:39;1.00;99.90
34434;DHT22;34290;48.562;13.384;2022-12-15T11:54:17;1.10;99.90
34434;DHT22;34290;48.562;13.384;2022-12-15T11:56:46;1.30;99.90
34434;DHT22;34290;48.562;13.384;2022-12-15T11:59:32;1.20;99.90
34434;DHT22;34290;48.562;13.384;2022-12-15T12:02:21;1.20;99.90
34434;DHT22;34290;48.562;13.384;2022-12-15T12:05:00;1.00;99.90
34434;DHT22;34290;48.562;13.384;2022-12-15T12:07:34;1.10;99.90
34434;DHT22;34290;48.562;13.384;2022-12-15T12:10:18;1.10;99.90
34434;DHT22;34290;48.562;13.384;2022-12-15T12:12:55;1.30;99.90
34434;DHT22;34290;48.562;13.384;2022-12-15T12:15:28;1.30;99.90
34434;DHT22;34290;48.562;13.384;2022-12-15T12:18:01;1.20;99.90
34434;DHT22;34290;48.562;13.384;2022-12-15T12:20:39;1.20;99.90
34434;DHT22;34290;48.562;13.384;2022-12-15T12:23:14;0.90;99.90
34434;DHT22;34290;48.562;13.384;2022-12-15T12:25:47;0.90;99.90
34434;DHT22;34290;48.562;13.384;2022-12-15T12:28:21;1.00;99.90
34434;DHT22;34290;48.562;13.384;2022-12-15T12:30:51;0.70;99.90
34434;DHT22;34290;48.562;13.384;2022-12-15T12:33:26;0.70;99.90
34434;DHT22;34290;48.562;13.384;2022-12-15T12:35:58;0.80;99.90
34434;DHT22;34290;48.562;13.384;2022-12-15T12:38:32;1.00;99.90
34434;DHT22;34290;48.562;13.384;2022-12-15T12:41:05;1.00;99.90
34434;DHT22;34290;48.562;13.384;2022-12-15T12:43:34;0.80;99.90
34434;DHT22;34290;48.562;13.384;2022-12-15T12:46:07;0.60;99.90
34434;DHT22;34290;48.562;13.384;2022-12-15T12:48:38;0.70;99.90
34434;DHT22;34290;48.562;13.384;2022-12-15T12:51:12;0.80;99.90
34434;DHT22;34290;48.562;13.384;2022-12-15T12:53:42;0.80;99.90
34434;DHT22;34290;48.562;13.384;2022-12-15T12:56:32;0.90;99.90
34434;DHT22;34290;48.562;13.384;2022-12-15T12:59:01;0.90;99.90
34434;DHT22;34290;48.562;13.384;2022-12-15T13:01:33;0.90;99.90
34434;DHT22;34290;48.562;13.384;2022-12-15T13:04:09;1.10;99.90
34434;DHT22;34290;48.562;13.384;2022-12-15T13:06:56;1.20;99.90
34434;DHT22;34290;48.562;13.384;2022-12-15T13:09:36;1.20;99.90
34434;DHT22;34290;48.562;13.384;2022-12-15T13:12:35;1.30;99.90
34434;DHT22;34290;48.562;13.384;2022-12-15T13:15:16;1.30;99.90
34434;DHT22;34290;48.562;13.384;2022-12-15T13:17:49;1.30;99.90
34434;DHT22;34290;48.562;13.384;2022-12-15T13:20:23;1.30;99.90
34434;DHT22;34290;48.562;13.384;2022-12-15T13:22:52;1.30;99.90
34434;DHT22;34290;48.562;13.384;2022-12-15T13:25:38;1.30;99.90
34434;DHT22;34290;48.562;13.384;2022-12-15T13:28:42;1.10;99.90
34434;DHT22;34290;48.562;13.384;2022-12-15T13:31:24;1.20;99.90
34434;DHT22;34290;48.562;13.384;2022-12-15T13:34:08;1.10;99.90
34434;DHT22;34290;48.562;13.384;2022-12-15T13:36:50;1.10;99.90
34434;DHT22;34290;48.562;13.384;2022-12-15T13:42:30;1.10;99.90
34434;DHT22;34290;48.562;13.384;2022-12-15T13:48:12;0.90;99.90
34434;DHT22;34290;48.562;13.384;2022-12-15T13:50:47;0.80;99.90
34434;DHT22;34290;48.562;13.384;2022-12-15T13:53:20;0.60;99.90
34434;DHT22;34290;48.562;13.384;2022-12-15T13:55:59;0.70;99.90
34434;DHT22;34290;48.562;13.384;2022-12-15T13:58:32;0.70;99.90
34434;DHT22;34290;48.562;13.384;2022-12-15T14:01:17;0.70;99.90
34434;DHT22;34290;48.562;13.384;2022-12-15T14:03:57;0.50;99.90
34434;DHT22;34290;48.562;13.384;2022-12-15T14:06:26;0.70;99.90
34434;DHT22;34290;48.562;13.384;2022-12-15T14:08:55;0.70;99.90
34434;DHT22;34290;48.562;13.384;2022-12-15T14:11:23;0.70;99.90
34434;DHT22;34290;48.562;13.384;2022-12-15T14:13:58;0.60;99.90
34434;DHT22;34290;48.562;13.384;2022-12-15T14:16:26;0.70;99.90
34434;DHT22;34290;48.562;13.384;2022-12-15T14:19:12;0.70;99.90
34434;DHT22;34290;48.562;13.384;2022-12-15T14:21:40;0.70;99.90
34434;DHT22;34290;48.562;13.384;2022-12-15T14:24:24;0.70;99.90
34434;DHT22;34290;48.562;13.384;2022-12-15T14:31:49;0.70;99.90
34434;DHT22;34290;48.562;13.384;2022-12-15T14:34:23;0.60;99.90
34434;DHT22;34290;48.562;13.384;2022-12-15T14:36:52;0.50;99.90
34434;DHT22;34290;48.562;13.384;2022-12-15T14:39:23;0.40;99.90
34434;DHT22;34290;48.562;13.384;2022-12-15T14:41:53;0.40;99.90
34434;DHT22;34290;48.562;13.384;2022-12-15T14:44:27;0.40;99.90
34434;DHT22;34290;48.562;13.384;2022-12-15T14:46:55;0.40;99.90
34434;DHT22;34290;48.562;13.384;2022-12-15T14:49:27;0.40;99.90
34434;DHT22;34290;48.562;13.384;2022-12-15T14:51:58;0.40;99.90
34434;DHT22;34290;48.562;13.384;2022-12-15T14:54:31;0.30;99.90
34434;DHT22;34290;48.562;13.384;2022-12-15T14:57:01;0.30;99.90
34434;DHT22;34290;48.562;13.384;2022-12-15T14:59:31;0.30;99.90
34434;DHT22;34290;48.562;13.384;2022-12-15T15:02:09;0.20;99.90
34434;DHT22;34290;48.562;13.384;2022-12-15T15:04:39;0.20;99.90
34434;DHT22;34290;48.562;13.384;2022-12-15T15:07:15;0.10;99.90
34434;DHT22;34290;48.562;13.384;2022-12-15T15:09:44;0.10;99.90
34434;DHT22;34290;48.562;13.384;2022-12-15T15:12:16;0.10;99.90
34434;DHT22;34290;48.562;13.384;2022-12-15T15:14:46;0.10;99.90
34434;DHT22;34290;48.562;13.384;2022-12-15T15:17:23;0.20;99.90
34434;DHT22;34290;48.562;13.384;2022-12-15T15:19:55;0.20;99.90
34434;DHT22;34290;48.562;13.384;2022-12-15T15:22:33;0.10;99.90
34434;DHT22;34290;48.562;13.384;2022-12-15T15:27:35;0.20;99.90
34434;DHT22;34290;48.562;13.384;2022-12-15T15:30:19;0.10;99.90
34434;DHT22;34290;48.562;13.384;2022-12-15T15:32:52;0.10;99.90
34434;DHT22;34290;48.562;13.384;2022-12-15T15:35:22;0.10;99.90
34434;DHT22;34290;48.562;13.384;2022-12-15T15:37:50;0.10;99.90
34434;DHT22;34290;48.562;13.384;2022-12-15T15:40:17;0.10;99.90
34434;DHT22;34290;48.562;13.384;2022-12-15T15:42:45;0.10;99.90
34434;DHT22;34290;48.562;13.384;2022-12-15T15:45:14;0.10;99.90
34434;DHT22;34290;48.562;13.384;2022-12-15T15:47:44;0.10;99.90
34434;DHT22;34290;48.562;13.384;2022-12-15T15:50:14;0.10;99.90
34434;DHT22;34290;48.562;13.384;2022-12-15T15:52:43;0.10;99.90
34434;DHT22;34290;48.562;13.384;2022-12-15T15:55:23;0.10;99.90
34434;DHT22;34290;48.562;13.384;2022-12-15T15:57:51;0.10;99.90
34434;DHT22;34290;48.562;13.384;2022-12-15T16:00:20;0.20;99.90
34434;DHT22;34290;48.562;13.384;2022-12-15T16:02:47;0.10;99.90
34434;DHT22;34290;48.562;13.384;2022-12-15T16:05:18;0.10;99.90
34434;DHT22;34290;48.562;13.384;2022-12-15T16:07:47;0.00;99.90
34434;DHT22;34290;48.562;13.384;2022-12-15T16:10:16;0.00;99.90
34434;DHT22;34290;48.562;13.384;2022-12-15T16:12:46;0.00;99.90
34434;DHT22;34290;48.562;13.384;2022-12-15T16:15:15;0.00;99.90
34434;DHT22;34290;48.562;13.384;2022-12-15T16:17:46;0.00;99.90
34434;DHT22;34290;48.562;13.384;2022-12-15T16:20:15;0.10;99.90
34434;DHT22;34290;48.562;13.384;2022-12-15T16:22:44;0.10;99.90
34434;DHT22;34290;48.562;13.384;2022-12-15T16:25:17;0.10;99.90
34434;DHT22;34290;48.562;13.384;2022-12-15T16:27:46;0.10;99.90
34434;DHT22;34290;48.562;13.384;2022-12-15T16:30:15;0.10;99.90
34434;DHT22;34290;48.562;13.384;2022-12-15T16:32:43;0.20;99.90
34434;DHT22;34290;48.562;13.384;2022-12-15T16:35:10;0.30;99.90
34434;DHT22;34290;48.562;13.384;2022-12-15T16:37:38;0.20;99.90
34434;DHT22;34290;48.562;13.384;2022-12-15T16:40:17;0.20;99.90
34434;DHT22;34290;48.562;13.384;2022-12-15T16:42:50;0.10;99.90
34434;DHT22;34290;48.562;13.384;2022-12-15T16:45:19;0.10;99.90
34434;DHT22;34290;48.562;13.384;2022-12-15T16:47:47;0.00;99.90
34434;DHT22;34290;48.562;13.384;2022-12-15T16:50:18;0.00;99.90
34434;DHT22;34290;48.562;13.384;2022-12-15T16:52:48;0.00;99.90
34434;DHT22;34290;48.562;13.384;2022-12-15T16:55:20;-0.10;99.90
34434;DHT22;34290;48.562;13.384;2022-12-15T16:57:49;-0.10;99.90
34434;DHT22;34290;48.562;13.384;2022-12-15T17:00:19;-0.10;99.90
34434;DHT22;34290;48.562;13.384;2022-12-15T17:02:49;0.00;99.90
34434;DHT22;34290;48.562;13.384;2022-12-15T17:05:16;-0.10;99.90
34434;DHT22;34290;48.562;13.384;2022-12-15T17:07:46;-0.10;99.90
34434;DHT22;34290;48.562;13.384;2022-12-15T17:10:16;-0.10;99.90
34434;DHT22;34290;48.562;13.384;2022-12-15T17:12:45;-0.10;99.90
34434;DHT22;34290;48.562;13.384;2022-12-15T17:15:20;-0.10;99.90
34434;DHT22;34290;48.562;13.384;2022-12-15T17:17:47;-0.10;99.90
34434;DHT22;34290;48.562;13.384;2022-12-15T17:20:16;-0.20;99.90
34434;DHT22;34290;48.562;13.384;2022-12-15T17:22:47;-0.20;99.90
34434;DHT22;34290;48.562;13.384;2022-12-15T17:25:17;-0.20;99.90
34434;DHT22;34290;48.562;13.384;2022-12-15T17:27:48;-0.10;99.90
34434;DHT22;34290;48.562;13.384;2022-12-15T17:32:44;-0.20;99.90
34434;DHT22;34290;48.562;13.384;2022-12-15T17:35:13;-0.20;99.90
34434;DHT22;34290;48.562;13.384;2022-12-15T17:37:40;-0.20;99.90
34434;DHT22;34290;48.562;13.384;2022-12-15T17:40:19;-0.10;99.90
34434;DHT22;34290;48.562;13.384;2022-12-15T17:42:48;-0.10;99.90
34434;DHT22;34290;48.562;13.384;2022-12-15T17:45:21;-0.10;99.90
34434;DHT22;34290;48.562;13.384;2022-12-15T17:47:49;-0.10;99.90
34434;DHT22;34290;48.562;13.384;2022-12-15T17:50:17;-0.20;99.90
34434;DHT22;34290;48.562;13.384;2022-12-15T17:52:45;-0.20;99.90
34434;DHT22;34290;48.562;13.384;2022-12-15T17:55:19;-0.20;99.90
34434;DHT22;34290;48.562;13.384;2022-12-15T17:57:48;-0.20;99.90
34434;DHT22;34290;48.562;13.384;2022-12-15T18:00:18;-0.20;99.90